Time;durP1;ratioP1;P1;durP2;ratioP2;P2;SDS_P1;SDS_P2;PMS_P1;PMS_P2;Temp;Humidity;BMP_temperature;BMP_pressure;BME280_temperature;BME280_humidity;BME280_pressure;Samples;Min_cycle;Max_cycle;Signal;HPM_P1;HPM_P2
2021/11/18 00:01:14;;;;;;;;;;;;;;;11.49;100.00;99837.66;5079614;28;20073;-80
2021/11/18 00:03:42;;;;;;;;;;;;;;;11.67;100.00;99849.56;5096969;28;19946;-80
2021/11/18 00:06:09;;;;;;;;;;;;;;;11.81;100.00;99843.84;5114681;28;20336;-80
2021/11/18 00:08:36;;;;;;;;;;;;;;;11.80;100.00;99841.47;5114570;28;19923;-80
2021/11/18 00:11:05;;;;;;;;;;;;;;;11.46;100.00;99837.69;5114433;28;19931;-80
2021/11/18 00:13:34;;;;;;;;;;;;;;;11.89;100.00;99845.34;5096434;28;20014;-80
2021/11/18 00:16:02;;;;;;;;;;;;;;;11.68;100.00;99856.72;5079733;28;20279;-80
2021/11/18 00:18:31;;;;;;;;;;;;;;;11.87;100.00;99859.00;5096202;28;20290;-80
2021/11/18 00:21:00;;;;;;;;;;;;;;;11.95;100.00;99865.34;5096098;28;19935;-80
2021/11/18 00:23:29;;;;;;;;;;;;;;;11.97;100.00;99862.88;5096302;28;20467;-80
2021/11/18 00:25:56;;;;;;;;;;;;;;;11.89;100.00;99876.16;5095871;28;19924;-80
2021/11/18 00:28:24;;;;;;;;;;;;;;;11.95;100.00;99871.69;5114108;28;19927;-80
2021/11/18 00:30:52;;;;;;;;;;;;;;;11.84;100.00;99876.63;5096060;28;19930;-80
2021/11/18 00:33:20;;;;;;;;;;;;;;;11.96;100.00;99883.72;5095984;28;19989;-80
2021/11/18 00:35:48;;;;;;;;;;;;;;;11.92;100.00;99872.53;5095984;28;19928;-80
2021/11/18 00:38:17;;;;;;;;;;;;;;;12.22;100.00;99875.44;5096245;28;19966;-80
2021/11/18 00:40:45;;;;;;;;;;;;;;;11.75;100.00;99861.50;5095823;28;19924;-80
2021/11/18 00:43:13;;;;;;;;;;;;;;;11.94;100.00;99864.53;5096223;28;19924;-80
2021/11/18 00:45:42;;;;;;;;;;;;;;;11.97;100.00;99863.69;5113838;28;20294;-80
2021/11/18 00:48:10;;;;;;;;;;;;;;;12.20;100.00;99861.09;5078816;28;19923;-80
2021/11/18 00:50:40;;;;;;;;;;;;;;;12.13;100.00;99861.13;5095859;28;19928;-80
2021/11/18 00:53:15;;;;;;;;;;;;;;;12.07;100.00;99845.97;5095238;28;20284;-80
2021/11/18 00:55:43;;;;;;;;;;;;;;;12.03;100.00;99845.22;5095541;28;19924;-80
2021/11/18 00:58:11;;;;;;;;;;;;;;;11.85;100.00;99847.41;5095705;28;20044;-80
2021/11/18 01:00:40;;;;;;;;;;;;;;;12.04;100.00;99840.44;5095693;28;19934;-80
2021/11/18 01:03:08;;;;;;;;;;;;;;;12.08;100.00;99844.78;5095478;28;19924;-80
2021/11/18 01:05:36;;;;;;;;;;;;;;;11.95;100.00;99840.91;5095606;28;20005;-80
2021/11/18 01:08:04;;;;;;;;;;;;;;;12.15;100.00;99841.91;5095307;28;19924;-80
2021/11/18 01:10:36;;;;;;;;;;;;;;;12.20;100.00;99841.47;5095316;28;20301;-80
2021/11/18 01:13:05;;;;;;;;;;;;;;;12.09;100.00;99829.56;5078755;28;19961;-80
2021/11/18 01:15:32;;;;;;;;;;;;;;;12.25;100.00;99818.56;5095344;28;20268;-80
2021/11/18 01:18:00;;;;;;;;;;;;;;;12.09;100.00;99804.34;5095134;28;19984;-80
2021/11/18 01:20:29;;;;;;;;;;;;;;;12.05;100.00;99798.00;5095346;28;19924;-80
2021/11/18 01:22:58;;;;;;;;;;;;;;;11.89;100.00;99816.56;5078482;28;20298;-80
2021/11/18 01:25:25;;;;;;;;;;;;;;;11.96;100.00;99822.91;5095184;28;19924;-80
2021/11/18 01:27:52;;;;;;;;;;;;;;;11.93;100.00;99829.34;5112200;28;19931;-80
2021/11/18 01:30:26;;;;;;;;;;;;;;;11.97;100.00;99832.88;5078637;28;19951;-80
2021/11/18 01:32:53;;;;;;;;;;;;;;;12.38;100.00;99836.47;5095175;28;20018;-80
2021/11/18 01:35:33;;;;;;;;;;;;;;;12.31;100.00;99827.34;5095360;28;19923;-80
2021/11/18 01:38:01;;;;;;;;;;;;;;;12.09;100.00;99829.56;5078518;28;19927;-80
2021/11/18 01:40:31;;;;;;;;;;;;;;;12.22;100.00;99846.66;5095104;28;19980;-80
2021/11/18 01:43:09;;;;;;;;;;;;;;;12.24;100.00;99841.41;5095126;28;20383;-80
2021/11/18 01:45:37;;;;;;;;;;;;;;;12.34;100.00;99840.53;5094901;28;19935;-80
2021/11/18 01:48:04;;;;;;;;;;;;;;;12.05;100.00;99836.41;5078571;28;19928;-80
2021/11/18 01:50:34;;;;;;;;;;;;;;;11.86;100.00;99843.38;5095079;28;19924;-80
2021/11/18 01:53:05;;;;;;;;;;;;;;;11.87;100.00;99836.59;5094979;28;19924;-80
2021/11/18 01:55:34;;;;;;;;;;;;;;;11.55;100.00;99819.22;5095076;28;19973;-80
2021/11/18 01:58:04;;;;;;;;;;;;;;;11.95;100.00;99798.88;5094913;28;19923;-80
2021/11/18 02:00:52;;;;;;;;;;;;;;;11.71;100.00;99794.31;5094808;28;20014;-80
2021/11/18 02:03:20;;;;;;;;;;;;;;;11.55;100.00;99799.63;5077977;28;20449;-80
2021/11/18 02:06:14;;;;;;;;;;;;;;;11.57;100.00;99811.19;5053562;28;19955;-80
2021/11/18 02:08:42;;;;;;;;;;;;;;;11.75;100.00;99822.28;5053821;28;19924;-80
2021/11/18 02:11:21;;;;;;;;;;;;;;;12.09;100.00;99837.97;5021983;28;19925;-80
2021/11/18 02:13:49;;;;;;;;;;;;;;;11.97;100.00;99841.28;5037277;28;19979;-80
2021/11/18 02:16:16;;;;;;;;;;;;;;;11.95;100.00;99854.91;5020703;28;19935;-80
2021/11/18 02:18:43;;;;;;;;;;;;;;;12.31;100.00;99860.97;5037305;28;19925;-80
2021/11/18 02:21:11;;;;;;;;;;;;;;;12.64;100.00;99868.63;5020502;28;20284;-80
2021/11/18 02:23:47;;;;;;;;;;;;;;;12.36;100.00;99872.50;5036899;28;19925;-80
2021/11/18 02:26:15;;;;;;;;;;;;;;;12.41;100.00;99866.47;5049860;28;20348;-80
2021/11/18 02:28:44;;;;;;;;;;;;;;;12.58;100.00;99873.91;5053363;28;19959;-80
2021/11/18 02:31:24;;;;;;;;;;;;;;;12.55;100.00;99855.09;5053524;28;20023;-80
2021/11/18 02:33:54;;;;;;;;;;;;;;;12.56;100.00;99862.28;5053815;28;19925;-80
2021/11/18 02:36:24;;;;;;;;;;;;;;;12.56;100.00;99845.47;5069894;28;19925;-80
2021/11/18 02:38:52;;;;;;;;;;;;;;;12.35;100.00;99854.13;5053392;28;19964;-80
2021/11/18 02:41:21;;;;;;;;;;;;;;;12.69;100.00;99854.91;5053434;28;19983;-80
2021/11/18 02:43:50;;;;;;;;;;;;;;;12.53;100.00;99859.53;5104165;28;19928;-80
2021/11/18 02:46:18;;;;;;;;;;;;;;;12.51;100.00;99848.72;5097971;28;19923;-80
2021/11/18 02:48:45;;;;;;;;;;;;;;;12.60;100.00;99843.41;5098141;28;20293;-80
2021/11/18 02:51:18;;;;;;;;;;;;;;;12.53;100.00;99845.50;5098002;28;19958;-80
2021/11/18 02:53:46;;;;;;;;;;;;;;;12.44;100.00;99851.63;5097952;28;20034;-80
2021/11/18 02:56:14;;;;;;;;;;;;;;;12.41;100.00;99843.25;5098043;28;19964;-80
2021/11/18 02:58:44;;;;;;;;;;;;;;;12.65;100.00;99842.16;5097720;28;20015;-80
2021/11/18 03:01:13;;;;;;;;;;;;;;;12.60;100.00;99828.63;5081108;28;19963;-80
2021/11/18 03:03:41;;;;;;;;;;;;;;;12.49;100.00;99827.94;5080982;28;20228;-80
2021/11/18 03:06:08;;;;;;;;;;;;;;;12.56;100.00;99851.06;5097660;28;20014;-80
2021/11/18 03:08:35;;;;;;;;;;;;;;;12.53;100.00;99856.72;5097839;28;19976;-80
2021/11/18 03:11:03;;;;;;;;;;;;;;;12.68;100.00;99860.94;5097583;28;19927;-80
2021/11/18 03:13:31;;;;;;;;;;;;;;;12.80;100.00;99842.78;5097716;28;20398;-80
2021/11/18 03:16:04;;;;;;;;;;;;;;;12.71;100.00;99832.88;5097196;28;19928;-80
2021/11/18 03:18:31;;;;;;;;;;;;;;;12.86;100.00;99833.47;5080656;28;19930;-80
2021/11/18 03:20:59;;;;;;;;;;;;;;;12.82;100.00;99820.72;5097222;28;19924;-81
2021/11/18 03:23:27;;;;;;;;;;;;;;;12.35;100.00;99819.69;5115635;28;20037;-81
2021/11/18 03:25:57;;;;;;;;;;;;;;;12.36;100.00;99812.84;5093638;28;19931;-80
2021/11/18 03:28:26;;;;;;;;;;;;;;;12.29;100.00;99805.34;5077290;28;19932;-80
2021/11/18 03:30:57;;;;;;;;;;;;;;;12.27;100.00;99804.16;5093882;28;20466;-80
2021/11/18 03:33:30;;;;;;;;;;;;;;;12.58;100.00;99798.19;5077671;28;19928;-80
2021/11/18 03:35:57;;;;;;;;;;;;;;;12.32;100.00;99789.69;5093609;28;19932;-80
2021/11/18 03:38:26;;;;;;;;;;;;;;;12.62;100.00;99787.72;5093794;28;19925;-80
2021/11/18 03:41:07;;;;;;;;;;;;;;;12.41;100.00;99785.19;5078710;28;19924;-80
2021/11/18 03:43:59;;;;;;;;;;;;;;;12.34;100.00;99804.88;5093871;28;20276;-79
2021/11/18 03:46:29;;;;;;;;;;;;;;;12.06;100.00;99804.38;5093406;28;19935;-79
2021/11/18 03:48:57;;;;;;;;;;;;;;;12.21;100.00;99805.81;5093432;28;19924;-80
2021/11/18 03:51:24;;;;;;;;;;;;;;;12.32;100.00;99800.91;5093461;28;20019;-80
2021/11/18 03:53:53;;;;;;;;;;;;;;;12.56;100.00;99786.59;5093512;28;19924;-80
2021/11/18 03:56:22;;;;;;;;;;;;;;;12.58;100.00;99784.19;5093079;28;19932;-80
2021/11/18 03:58:49;;;;;;;;;;;;;;;12.60;100.00;99789.38;5076287;28;19928;-80
2021/11/18 04:01:18;;;;;;;;;;;;;;;12.54;100.00;99780.59;5093249;28;19924;-80
2021/11/18 04:03:46;;;;;;;;;;;;;;;12.76;100.00;99761.50;5076543;28;20333;-80
2021/11/18 04:06:13;;;;;;;;;;;;;;;12.50;100.00;99756.63;5076627;28;19931;-80
2021/11/18 04:08:58;;;;;;;;;;;;;;;12.40;100.00;99754.78;5092976;28;19985;-80
2021/11/18 04:11:26;;;;;;;;;;;;;;;12.31;100.00;99758.06;5076132;28;19924;-80
2021/11/18 04:14:04;;;;;;;;;;;;;;;12.31;100.00;99760.88;5093104;28;19935;-80
2021/11/18 04:16:31;;;;;;;;;;;;;;;12.33;100.00;99766.84;5076182;28;19925;-80
2021/11/18 04:18:59;;;;;;;;;;;;;;;12.28;100.00;99753.28;5076058;28;19924;-80
2021/11/18 04:21:31;;;;;;;;;;;;;;;12.28;100.00;99756.09;5094024;28;20379;-80
2021/11/18 04:23:59;;;;;;;;;;;;;;;12.47;100.00;99752.69;5092813;28;19977;-80
2021/11/18 04:26:28;;;;;;;;;;;;;;;12.35;100.00;99756.03;5059508;28;19924;-80
2021/11/18 04:28:56;;;;;;;;;;;;;;;12.50;100.00;99768.66;5092271;28;19931;-80
2021/11/18 04:31:24;;;;;;;;;;;;;;;12.48;100.00;99770.31;5075786;28;19924;-80
2021/11/18 04:33:52;;;;;;;;;;;;;;;12.47;100.00;99744.28;5092612;28;19927;-80
2021/11/18 04:36:21;;;;;;;;;;;;;;;12.22;100.00;99757.78;5093849;28;19997;-80
2021/11/18 04:38:48;;;;;;;;;;;;;;;12.16;100.00;99759.44;5075717;28;20022;-80
2021/11/18 04:41:15;;;;;;;;;;;;;;;12.27;100.00;99771.34;5075841;28;19989;-80
2021/11/18 04:43:44;;;;;;;;;;;;;;;12.04;100.00;99762.00;5092445;28;19931;-80
2021/11/18 04:46:13;;;;;;;;;;;;;;;12.08;100.00;99797.19;5075428;28;20375;-80
2021/11/18 04:48:40;;;;;;;;;;;;;;;12.04;100.00;99807.59;5093491;28;19971;-80
2021/11/18 04:51:09;;;;;;;;;;;;;;;12.12;100.00;99794.31;5075694;28;19931;-80
2021/11/18 04:53:37;;;;;;;;;;;;;;;12.30;100.00;99804.13;5092279;28;19924;-80
2021/11/18 04:56:05;;;;;;;;;;;;;;;12.27;100.00;99804.97;5092200;28;19924;-80
2021/11/18 04:58:39;;;;;;;;;;;;;;;12.33;100.00;99792.06;5075311;28;19924;-80
2021/11/18 05:01:07;;;;;;;;;;;;;;;12.31;100.00;99808.50;5092005;28;20028;-80
2021/11/18 05:03:34;;;;;;;;;;;;;;;12.47;100.00;99813.53;5092226;28;19924;-80
2021/11/18 05:06:02;;;;;;;;;;;;;;;12.62;100.00;99810.16;5092168;28;19924;-80
2021/11/18 05:08:29;;;;;;;;;;;;;;;12.62;100.00;99806.53;5091874;28;19924;-80
2021/11/18 05:10:56;;;;;;;;;;;;;;;12.77;100.00;99811.56;5092057;28;20386;-80
2021/11/18 05:15:17;;;;;;;;;;;;;;;12.85;100.00;99812.25;5090365;28;19978;-80
2021/11/18 05:17:45;;;;;;;;;;;;;;;13.03;100.00;99807.22;5123373;28;19954;-80
2021/11/18 05:20:12;;;;;;;;;;;;;;;12.52;100.00;99813.91;5090461;28;19928;-80
2021/11/18 05:22:45;;;;;;;;;;;;;;;12.77;100.00;99811.56;5089183;28;20022;-80
2021/11/18 05:25:57;;;;;;;;;;;;;;;13.16;100.00;99827.88;5090412;28;19916;-80
2021/11/18 05:28:26;;;;;;;;;;;;;;;12.94;100.00;99822.94;5089231;28;19968;-80
2021/11/18 05:30:54;;;;;;;;;;;;;;;13.17;100.00;99828.69;5089046;28;20018;-81
2021/11/18 05:33:23;;;;;;;;;;;;;;;13.34;100.00;99828.44;5072623;28;20376;-81
2021/11/18 05:35:50;;;;;;;;;;;;;;;13.68;100.00;99833.91;5089027;28;20343;-81
2021/11/18 05:38:19;;;;;;;;;;;;;;;13.02;100.00;99838.50;5072037;28;20019;-81
2021/11/18 05:40:49;;;;;;;;;;;;;;;13.43;100.00;99842.72;5123087;28;19924;-81
2021/11/18 05:43:20;;;;;;;;;;;;;;;13.22;100.00;99842.25;5056179;28;19928;-81
2021/11/18 05:45:48;;;;;;;;;;;;;;;13.74;100.00;99846.22;5105483;28;19925;-81
2021/11/18 05:48:16;;;;;;;;;;;;;;;13.26;100.00;99842.97;5088909;28;19931;-81
2021/11/18 05:50:48;;;;;;;;;;;;;;;13.30;100.00;99849.34;5055789;28;19962;-81
2021/11/18 05:53:21;;;;;;;;;;;;;;;13.61;100.00;99856.50;5088841;28;20425;-80
2021/11/18 05:55:48;;;;;;;;;;;;;;;13.84;100.00;99856.53;5105742;28;20268;-81
2021/11/18 05:58:15;;;;;;;;;;;;;;;13.66;100.00;99862.41;5088920;28;19924;-81
2021/11/18 06:00:42;;;;;;;;;;;;;;;13.67;100.00;99875.25;5088637;28;19928;-81
2021/11/18 06:03:09;;;;;;;;;;;;;;;13.56;100.00;99865.38;5088675;28;20011;-80
2021/11/18 06:05:39;;;;;;;;;;;;;;;13.54;100.00;99854.56;5105475;28;19930;-80
2021/11/18 06:08:08;;;;;;;;;;;;;;;13.59;100.00;99859.72;5105206;28;20034;-80
2021/11/18 06:10:37;;;;;;;;;;;;;;;13.51;100.00;99861.03;5088601;28;20015;-80
2021/11/18 06:13:05;;;;;;;;;;;;;;;13.24;100.00;99862.28;5089431;28;19932;-80
2021/11/18 06:15:38;;;;;;;;;;;;;;;13.52;100.00;99870.25;5122203;28;19925;-80
2021/11/18 06:18:08;;;;;;;;;;;;;;;13.48;100.00;99861.13;5055550;28;19924;-80
2021/11/18 06:20:36;;;;;;;;;;;;;;;13.53;100.00;99871.84;5088255;28;19930;-80
2021/11/18 06:23:05;;;;;;;;;;;;;;;13.28;100.00;99868.63;5054988;28;19931;-81
2021/11/18 06:25:34;;;;;;;;;;;;;;;13.45;100.00;99867.56;5104867;28;20017;-81
2021/11/18 06:28:02;;;;;;;;;;;;;;;12.94;100.00;99870.63;5088016;28;19952;-80
2021/11/18 06:30:35;;;;;;;;;;;;;;;12.93;100.00;99894.31;5071264;28;19924;-80
2021/11/18 06:33:06;;;;;;;;;;;;;;;13.21;100.00;99891.19;5122033;28;19925;-81
2021/11/18 06:35:34;;;;;;;;;;;;;;;13.34;100.00;99889.38;5084293;28;19928;-80
2021/11/18 06:38:03;;;;;;;;;;;;;;;13.47;100.00;99898.81;5074511;28;20059;-80
2021/11/18 06:40:31;;;;;;;;;;;;;;;13.57;100.00;99887.41;5074725;28;19924;-80
2021/11/18 06:43:01;;;;;;;;;;;;;;;13.42;100.00;99896.50;5074140;28;20410;-80
2021/11/18 06:45:36;;;;;;;;;;;;;;;13.24;100.00;99899.53;5108043;28;19924;-80
2021/11/18 06:48:08;;;;;;;;;;;;;;;12.93;100.00;99908.34;5091024;28;19924;-80
2021/11/18 06:50:40;;;;;;;;;;;;;;;13.21;100.00;99896.78;5074323;28;19931;-80
2021/11/18 06:53:10;;;;;;;;;;;;;;;13.32;100.00;99909.47;5108097;28;19950;-80
2021/11/18 06:55:37;;;;;;;;;;;;;;;13.23;100.00;99906.38;5041121;28;19928;-80
2021/11/18 06:58:06;;;;;;;;;;;;;;;13.26;100.00;99905.53;5062061;28;19925;-80
2021/11/18 07:00:34;;;;;;;;;;;;;;;13.32;100.00;99908.66;5054015;28;19925;-80
2021/11/18 07:03:07;;;;;;;;;;;;;;;13.60;100.00;99906.22;5054013;28;20376;-80
2021/11/18 07:05:35;;;;;;;;;;;;;;;13.17;100.00;99901.63;5053815;28;19928;-80
2021/11/18 07:08:03;;;;;;;;;;;;;;;13.41;100.00;99895.69;5037322;28;19932;-80
2021/11/18 07:10:31;;;;;;;;;;;;;;;13.66;100.00;99900.94;5053636;28;19924;-81
2021/11/18 07:13:09;;;;;;;;;;;;;;;13.39;100.00;99897.34;5053221;28;19982;-80
2021/11/18 07:15:36;;;;;;;;;;;;;;;13.14;100.00;99903.28;5037497;28;20356;-80
2021/11/18 07:18:10;;;;;;;;;;;;;;;13.28;100.00;99913.53;5038049;28;19990;-80
2021/11/18 07:20:37;;;;;;;;;;;;;;;13.20;100.00;99915.63;5053684;28;19935;-80
2021/11/18 07:23:06;;;;;;;;;;;;;;;13.53;100.00;99923.19;5053615;28;19991;-80
2021/11/18 07:25:38;;;;;;;;;;;;;;;13.38;100.00;99929.41;5069756;28;20379;-79
2021/11/18 07:28:08;;;;;;;;;;;;;;;13.68;100.00;99927.38;5021141;28;20342;-79
2021/11/18 07:30:36;;;;;;;;;;;;;;;13.60;100.00;99941.97;5051890;28;20007;-79
2021/11/18 07:33:03;;;;;;;;;;;;;;;13.60;100.00;99951.16;5053422;28;19925;-79
2021/11/18 07:35:32;;;;;;;;;;;;;;;13.51;100.00;99950.09;5039507;28;19924;-81
2021/11/18 07:38:00;;;;;;;;;;;;;;;14.03;100.00;99959.75;5056833;28;19937;-82
2021/11/18 07:40:34;;;;;;;;;;;;;;;13.88;100.00;99964.81;5053247;28;19932;-81
2021/11/18 07:43:10;;;;;;;;;;;;;;;14.20;100.00;99955.88;5086660;28;20376;-82
2021/11/18 07:46:08;;;;;;;;;;;;;;;14.38;100.00;99959.19;5032015;28;20443;-82
2021/11/18 07:48:44;;;;;;;;;;;;;;;14.01;100.00;99962.22;5014661;28;20412;-81
2021/11/18 07:51:12;;;;;;;;;;;;;;;14.04;100.00;99964.16;5048631;28;20443;-81
2021/11/18 07:53:42;;;;;;;;;;;;;;;14.07;100.00;99966.91;5015849;28;19932;-82
2021/11/18 07:56:09;;;;;;;;;;;;;;;14.15;100.00;99959.16;5015294;28;20296;-81
2021/11/18 07:58:36;;;;;;;;;;;;;;;14.12;100.00;99960.81;5015355;28;19929;-82
2021/11/18 08:01:05;;;;;;;;;;;;;;;14.03;100.00;99968.19;5015382;28;20027;-81
2021/11/18 08:03:34;;;;;;;;;;;;;;;14.07;100.00;99972.53;4998780;28;19980;-81
2021/11/18 08:06:08;;;;;;;;;;;;;;;13.77;100.00;99957.72;5031749;28;20775;-81
2021/11/18 08:08:45;;;;;;;;;;;;;;;13.74;100.00;99969.81;5015098;28;20008;-81
2021/11/18 08:11:15;;;;;;;;;;;;;;;13.95;100.00;99977.97;5015533;28;20300;-81
2021/11/18 08:13:43;;;;;;;;;;;;;;;13.73;100.00;99977.47;5031460;28;19925;-81
2021/11/18 08:16:11;;;;;;;;;;;;;;;13.97;100.00;99975.50;5015050;28;20430;-81
2021/11/18 08:18:42;;;;;;;;;;;;;;;13.93;100.00;99977.56;5020314;28;20411;-82
2021/11/18 08:21:10;;;;;;;;;;;;;;;13.84;100.00;99969.66;5018267;28;19924;-81
2021/11/18 08:23:38;;;;;;;;;;;;;;;14.09;100.00;99983.34;5050536;28;19983;-81
2021/11/18 08:26:06;;;;;;;;;;;;;;;14.02;100.00;99977.84;5085605;28;19932;-81
2021/11/18 08:28:33;;;;;;;;;;;;;;;14.05;100.00;99985.41;5052516;28;19979;-81
2021/11/18 08:31:01;;;;;;;;;;;;;;;13.90;100.00;99990.44;5052357;28;20066;-81
2021/11/18 08:33:35;;;;;;;;;;;;;;;13.84;100.00;99999.78;5052361;28;20403;-81
2021/11/18 08:36:02;;;;;;;;;;;;;;;14.22;100.00;99990.75;5052253;28;20036;-81
2021/11/18 08:38:29;;;;;;;;;;;;;;;14.11;100.00;99989.34;5035390;28;19932;-81
2021/11/18 08:41:00;;;;;;;;;;;;;;;13.84;100.00;100008.22;5085671;28;20023;-81
2021/11/18 08:43:28;;;;;;;;;;;;;;;13.81;100.00;100004.22;5068656;28;19956;-82
2021/11/18 08:45:55;;;;;;;;;;;;;;;14.08;100.00;100013.47;5051996;28;19988;-81
2021/11/18 08:48:23;;;;;;;;;;;;;;;14.09;100.00;100017.88;5052104;28;20039;-82
2021/11/18 08:50:58;;;;;;;;;;;;;;;13.99;100.00;100029.25;5035663;28;19936;-81
2021/11/18 08:53:27;;;;;;;;;;;;;;;14.12;100.00;100041.50;5035456;28;19978;-81
2021/11/18 08:55:57;;;;;;;;;;;;;;;14.27;100.00;100029.66;5051801;28;19925;-81
2021/11/18 08:58:26;;;;;;;;;;;;;;;14.14;100.00;100031.44;5052921;28;19925;-81
2021/11/18 09:01:08;;;;;;;;;;;;;;;14.38;100.00;100032.31;5051746;28;19924;-81
2021/11/18 09:03:40;;;;;;;;;;;;;;;14.70;100.00;100034.59;5051866;28;19924;-81
2021/11/18 09:06:10;;;;;;;;;;;;;;;14.86;100.00;100045.97;5085234;28;20338;-81
2021/11/18 09:08:39;;;;;;;;;;;;;;;14.88;100.00;100047.13;5051612;28;20388;-82
2021/11/18 09:11:10;;;;;;;;;;;;;;;14.74;100.00;100044.56;5068380;28;20273;-82
2021/11/18 09:13:43;;;;;;;;;;;;;;;14.99;100.00;100044.91;5051769;28;19925;-82
2021/11/18 09:16:11;;;;;;;;;;;;;;;14.71;100.00;100051.03;5051583;28;19947;-82
2021/11/18 09:18:42;;;;;;;;;;;;;;;14.91;100.00;100051.91;5051566;28;19932;-81
2021/11/18 09:21:13;;;;;;;;;;;;;;;14.81;100.00;100061.31;5035130;28;20024;-82
2021/11/18 09:23:42;;;;;;;;;;;;;;;14.51;100.00;100052.97;5051768;28;19925;-81
2021/11/18 09:26:11;;;;;;;;;;;;;;;14.47;100.00;100057.88;5048126;28;19928;-81
2021/11/18 09:28:40;;;;;;;;;;;;;;;14.45;100.00;100060.31;5063713;28;19970;-82
2021/11/18 09:31:22;;;;;;;;;;;;;;;13.91;100.00;100061.47;5063174;28;19926;-81
2021/11/18 09:33:50;;;;;;;;;;;;;;;13.98;100.00;100070.59;5030730;28;19924;-80
2021/11/18 09:36:19;;;;;;;;;;;;;;;13.95;100.00;100076.28;5061514;28;19998;-80
2021/11/18 09:38:48;;;;;;;;;;;;;;;13.93;100.00;100071.06;5065824;28;19932;-82
2021/11/18 09:41:27;;;;;;;;;;;;;;;13.90;100.00;100073.94;5064309;28;20086;-79
2021/11/18 09:44:17;;;;;;;;;;;;;;;14.09;100.00;100073.28;5079894;28;20395;-80
2021/11/18 09:46:52;;;;;;;;;;;;;;;14.32;100.00;100070.56;5046422;28;19931;-76
2021/11/18 09:49:19;;;;;;;;;;;;;;;14.75;100.00;100082.72;5046628;28;19964;-76
2021/11/18 09:52:04;;;;;;;;;;;;;;;14.19;100.00;100073.13;5030678;28;19995;-76
2021/11/18 09:54:51;;;;;;;;;;;;;;;14.31;100.00;100083.03;5046440;28;19974;-76
2021/11/18 09:57:22;;;;;;;;;;;;;;;14.42;100.00;100089.28;5079643;28;20012;-78
2021/11/18 10:00:21;;;;;;;;;;;;;;;14.48;100.00;100096.00;5045990;28;19931;-78
2021/11/18 10:06:54;;;;;;;;;;;;;;;13.92;100.00;100106.00;5046861;28;20384;-82
2021/11/18 10:09:37;;;;;;;;;;;;;;;14.23;100.00;100109.63;5029933;28;20342;-81
2021/11/18 10:12:05;;;;;;;;;;;;;;;14.35;100.00;100092.19;5049144;28;19932;-81
2021/11/18 10:14:37;;;;;;;;;;;;;;;14.21;100.00;100095.97;5049993;28;19925;-80
2021/11/18 10:17:17;;;;;;;;;;;;;;;14.25;100.00;100096.75;5050869;28;20016;-78
2021/11/18 10:19:49;;;;;;;;;;;;;;;14.15;100.00;100091.25;5050260;28;19932;-78
2021/11/18 10:22:18;;;;;;;;;;;;;;;14.34;100.00;100099.06;5050708;28;19925;-78
2021/11/18 10:24:46;;;;;;;;;;;;;;;14.27;100.00;100093.50;5050678;28;19929;-79
2021/11/18 10:27:17;;;;;;;;;;;;;;;14.72;100.00;100113.72;5049974;28;19925;-78
2021/11/18 10:30:03;;;;;;;;;;;;;;;14.59;100.00;100104.28;5083475;28;19924;-80
2021/11/18 10:32:33;;;;;;;;;;;;;;;14.53;100.00;100109.59;5095978;28;19931;-80
2021/11/18 10:35:12;;;;;;;;;;;;;;;14.87;100.00;100115.88;5070148;28;20146;-80
2021/11/18 10:37:50;;;;;;;;;;;;;;;15.33;100.00;100120.69;5071631;28;19931;-80
2021/11/18 10:40:26;;;;;;;;;;;;;;;14.78;100.00;100121.28;5071418;28;19924;-80
2021/11/18 10:43:15;;;;;;;;;;;;;;;14.83;100.00;100114.34;5069343;28;19959;-87
2021/11/18 10:45:44;;;;;;;;;;;;;;;15.04;100.00;100119.63;5101977;28;19924;-79
2021/11/18 10:48:32;;;;;;;;;;;;;;;14.97;100.00;100114.91;5070601;28;19924;-79
2021/11/18 10:51:10;;;;;;;;;;;;;;;15.07;100.00;100119.53;5066559;28;19928;-78
2021/11/18 10:53:38;;;;;;;;;;;;;;;14.36;100.00;100135.94;5048930;28;19925;-79
2021/11/18 10:56:07;;;;;;;;;;;;;;;14.71;100.00;100124.19;5050751;28;20396;-78
2021/11/18 10:58:36;;;;;;;;;;;;;;;14.51;100.00;100117.66;5066542;28;19925;-80
2021/11/18 11:01:22;;;;;;;;;;;;;;;15.03;100.00;100116.00;5049345;28;20006;-79
2021/11/18 11:03:49;;;;;;;;;;;;;;;14.91;100.00;100108.16;5050548;28;19924;-80
2021/11/18 11:10:25;;;;;;;;;;;;;;;14.84;100.00;100132.81;5048898;28;19921;-80
2021/11/18 11:12:55;;;;;;;;;;;;;;;14.65;100.00;100111.81;5083405;28;19924;-80
2021/11/18 11:15:29;;;;;;;;;;;;;;;14.64;100.00;100117.88;5050471;28;19947;-79
2021/11/18 11:17:56;;;;;;;;;;;;;;;14.52;100.00;100122.06;5049971;28;19975;-78
2021/11/18 11:20:35;;;;;;;;;;;;;;;14.09;100.00;100126.66;5052194;28;19925;-78
2021/11/18 11:23:21;;;;;;;;;;;;;;;14.32;100.00;100119.16;5070204;28;19928;-78
2021/11/18 11:26:07;;;;;;;;;;;;;;;14.16;100.00;100132.22;5069135;28;19974;-78
2021/11/18 11:28:43;;;;;;;;;;;;;;;13.95;100.00;100124.84;5070480;28;20279;-78
2021/11/18 11:31:49;;;;;;;;;;;;;;;14.57;100.00;100135.63;5068816;28;20327;-77
2021/11/18 11:34:29;;;;;;;;;;;;;;;14.36;100.00;100138.75;5026700;28;19934;-78
2021/11/18 11:36:56;;;;;;;;;;;;;;;14.05;100.00;100120.31;5026897;28;20115;-78
2021/11/18 11:39:32;;;;;;;;;;;;;;;14.55;100.00;100115.59;5010104;28;20208;-78
2021/11/18 11:42:01;;;;;;;;;;;;;;;14.79;100.00;100096.72;5027146;28;19924;-78
2021/11/18 11:44:47;;;;;;;;;;;;;;;15.29;100.00;100103.88;4995339;28;19925;-78
2021/11/18 11:47:29;;;;;;;;;;;;;;;15.17;100.00;100104.50;5010645;28;20020;-78
2021/11/18 11:50:13;;;;;;;;;;;;;;;15.29;100.00;100103.88;5010550;28;19925;-78
2021/11/18 11:52:47;;;;;;;;;;;;;;;14.98;100.00;100105.22;5026873;28;19929;-78
2021/11/18 11:55:19;;;;;;;;;;;;;;;14.92;100.00;100106.94;5026535;28;19992;-78
2021/11/18 11:57:55;;;;;;;;;;;;;;;14.60;100.00;100101.03;5010578;28;19925;-78
2021/11/18 12:00:41;;;;;;;;;;;;;;;14.18;100.00;100118.50;5026425;28;19929;-78
2021/11/18 12:03:08;;;;;;;;;;;;;;;14.72;100.00;100127.78;5009783;28;19925;-78
2021/11/18 12:05:40;;;;;;;;;;;;;;;14.67;100.00;100129.06;5042502;28;19964;-79
2021/11/18 12:08:19;;;;;;;;;;;;;;;14.45;100.00;100130.59;5049509;28;20026;-78
2021/11/18 12:10:53;;;;;;;;;;;;;;;14.22;100.00;100130.53;5049806;28;19932;-78
2021/11/18 12:13:35;;;;;;;;;;;;;;;14.40;100.00;100143.13;5048938;28;19939;-78
2021/11/18 12:16:20;;;;;;;;;;;;;;;14.45;100.00;100150.28;5049225;28;20457;-78
2021/11/18 12:19:01;;;;;;;;;;;;;;;14.81;100.00;100147.75;5048761;28;20323;-78
2021/11/18 12:21:31;;;;;;;;;;;;;;;14.58;100.00;100139.25;5049413;28;20384;-78
2021/11/18 12:24:09;;;;;;;;;;;;;;;14.81;100.00;100139.31;5048010;28;19924;-76
2021/11/18 12:26:44;;;;;;;;;;;;;;;14.98;100.00;100127.75;5048985;28;19971;-76
2021/11/18 12:29:21;;;;;;;;;;;;;;;14.83;100.00;100132.00;5080896;28;19929;-77
2021/11/18 12:32:03;;;;;;;;;;;;;;;15.48;100.00;100136.16;5049044;28;19925;-77
2021/11/18 12:34:45;;;;;;;;;;;;;;;15.09;100.00;100119.91;5047692;28;20487;-75
2021/11/18 12:37:16;;;;;;;;;;;;;;;15.27;100.00;100120.41;5049074;28;20380;-76
2021/11/18 12:40:02;;;;;;;;;;;;;;;15.36;100.00;100123.44;5049814;28;19925;-75
2021/11/18 12:42:44;;;;;;;;;;;;;;;15.08;100.00;100109.91;5049970;28;20284;-76
2021/11/18 12:45:20;;;;;;;;;;;;;;;15.07;100.00;100107.50;5101132;28;19925;-78
2021/11/18 12:47:47;;;;;;;;;;;;;;;15.17;100.00;100106.50;5068569;28;20414;-78
2021/11/18 12:50:14;;;;;;;;;;;;;;;15.04;100.00;100102.75;5069363;28;19924;-77
2021/11/18 12:53:01;;;;;;;;;;;;;;;14.93;100.00;100100.09;5067854;28;20520;-78
2021/11/18 12:55:43;;;;;;;;;;;;;;;15.02;100.00;100100.34;5068883;28;19946;-77
2021/11/18 12:58:20;;;;;;;;;;;;;;;14.95;100.00;100085.59;5070473;28;20543;-78
2021/11/18 13:00:48;;;;;;;;;;;;;;;14.66;100.00;100095.75;5069171;28;20492;-78
2021/11/18 13:03:35;;;;;;;;;;;;;;;14.78;100.00;100084.69;5064298;28;20402;-78
2021/11/18 13:06:04;;;;;;;;;;;;;;;14.98;100.00;100082.72;5049356;28;19931;-77